Latest Weather Observations for Armament Jetty

IDW60801

Issued at 4:12 am WST Friday 23 February 2024 (issued every 10 minutes, with the page automatically refreshed every 10 minutes)

About weather observations | Map of weather stations | Latest weather observations for WA | Other Formats
Station Details ID: 009254 Name: ARMAMENT JETTY Lat: -32.18 Lon: 115.68 Height: 9.0 m
Data from the previous 72 hours. | See also: Recent months for locations in Western Australia
Date/Time
WST
Temp
°C
App
Temp
°C
Dew
Point
°C
Rel
Hum
%
Delta-T
°C
Wind Press
QNH
hPa
Press
MSL
hPa
Rain since
9am
mm
Dir  Spd
km/h
Gust
km/h
Spd
kts
Gust
kts
23/04:00am - - - - - ESE 32 35 17 19 - - -
23/03:30am - - - - - ESE 32 37 17 20 - - -
23/03:00am - - - - - ESE 33 39 18 21 - - -
23/02:30am - - - - - ESE 35 44 19 24 - - -
23/02:02am - - - - - ESE 33 52 18 28 - - -
23/02:00am - - - - - ESE 35 52 19 28 - - -
23/01:30am - - - - - ESE 35 41 19 22 - - -
23/01:00am - - - - - ESE 39 50 21 27 - - -
23/12:30am - - - - - ESE 39 46 21 25 - - -
23/12:00am - - - - - ESE 35 44 19 24 - - -
 
Date/Time
WST
Temp
°C
App
Temp
°C
Dew
Point
°C
Rel
Hum
%
Delta-T
°C
Wind Press
QNH
hPa
Press
MSL
hPa
Rain since
9am
mm
Dir  Spd
km/h
Gust
km/h
Spd
kts
Gust
kts
22/11:30pm - - - - - ESE 35 41 19 22 - - -
22/11:00pm - - - - - ESE 35 46 19 25 - - -
22/10:30pm - - - - - SE 35 41 19 22 - - -
22/10:00pm - - - - - SE 32 39 17 21 - - -
22/09:30pm - - - - - SE 28 33 15 18 - - -
22/09:00pm - - - - - SE 26 30 14 16 - - -
22/08:30pm - - - - - ESE 30 33 16 18 - - -
22/08:00pm - - - - - ESE 24 28 13 15 - - -
22/07:30pm - - - - - E 30 33 16 18 - - -
22/07:00pm - - - - - ESE 28 32 15 17 - - -
22/06:30pm - - - - - SE 19 33 10 18 - - -
22/06:00pm - - - - - SSW 26 30 14 16 - - -
22/05:30pm - - - - - SSW 33 39 18 21 - - -
22/05:00pm - - - - - SSW 30 39 16 21 - - -
22/04:30pm - - - - - SSW 32 41 17 22 - - -
22/04:00pm - - - - - SSW 30 35 16 19 - - -
22/03:30pm - - - - - SW 28 39 15 21 - - -
22/03:00pm - - - - - S 17 28 9 15 - - -
22/02:30pm - - - - - SE 19 28 10 15 - - -
22/02:00pm - - - - - SE 15 19 8 10 - - -
22/01:30pm - - - - - SE 17 24 9 13 - - -
22/01:00pm - - - - - SE 13 15 7 8 - - -
22/12:30pm - - - - - SSE 13 19 7 10 - - -
22/12:00pm - - - - - SE 19 24 10 13 - - -
22/11:30am - - - - - SE 20 28 11 15 - - -
22/11:00am - - - - - SE 20 30 11 16 - - -
22/10:30am - - - - - SE 22 32 12 17 - - -
22/10:00am - - - - - ESE 26 33 14 18 - - -
22/09:30am - - - - - ESE 28 39 15 21 - - -
22/09:00am - - - - - SE 33 41 18 22 - - -
22/08:30am - - - - - SE 37 46 20 25 - - -
22/08:00am - - - - - SE 35 46 19 25 - - -
22/07:30am - - - - - SE 32 41 17 22 - - -
22/07:00am - - - - - SE 33 41 18 22 - - -
22/06:30am - - - - - SE 33 39 18 21 - - -
22/06:00am - - - - - SE 32 37 17 20 - - -
22/05:30am - - - - - SE 32 39 17 21 - - -
22/05:00am - - - - - SE 32 39 17 21 - - -
22/04:30am - - - - - SSE 32 39 17 21 - - -
22/04:00am - - - - - SSE 33 39 18 21 - - -
22/03:30am - - - - - SSE 32 37 17 20 - - -
22/03:00am - - - - - SSE 35 41 19 22 - - -
22/02:30am - - - - - SSE 35 39 19 21 - - -
22/02:00am - - - - - SSE 35 41 19 22 - - -
22/01:30am - - - - - SSE 33 39 18 21 - - -
22/01:00am - - - - - S 37 43 20 23 - - -
22/12:30am - - - - - S 37 44 20 24 - - -
22/12:00am - - - - - S 37 50 20 27 - - -
 
Date/Time
WST
Temp
°C
App
Temp
°C
Dew
Point
°C
Rel
Hum
%
Delta-T
°C
Wind Press
QNH
hPa
Press
MSL
hPa
Rain since
9am
mm
Dir  Spd
km/h
Gust
km/h
Spd
kts
Gust
kts
21/11:30pm - - - - - S 39 48 21 26 - - -
21/11:00pm - - - - - S 39 48 21 26 - - -
21/10:30pm - - - - - S 39 48 21 26 - - -
21/10:00pm - - - - - S 39 52 21 28 - - -
21/09:30pm - - - - - S 39 48 21 26 - - -
21/09:00pm - - - - - SSW 37 48 20 26 - - -
21/08:30pm - - - - - SSW 37 46 20 25 - - -
21/08:00pm - - - - - SSW 37 48 20 26 - - -
21/07:30pm - - - - - SSW 37 50 20 27 - - -
21/07:00pm - - - - - SSW 35 48 19 26 - - -
21/06:30pm - - - - - SSW 37 50 20 27 - - -
21/06:00pm - - - - - SSW 37 50 20 27 - - -
21/05:30pm - - - - - SSW 35 44 19 24 - - -
21/05:00pm - - - - - SSW 37 48 20 26 - - -
21/04:30pm - - - - - SSW 33 41 18 22 - - -
21/04:00pm - - - - - SSW 35 52 19 28 - - -
21/03:30pm - - - - - SSW 41 52 22 28 - - -
21/03:00pm - - - - - SSW 37 48 20 26 - - -
21/02:30pm - - - - - SSW 37 48 20 26 - - -
21/02:00pm - - - - - SSW 37 44 20 24 - - -
21/01:30pm - - - - - SSW 35 41 19 22 - - -
21/01:00pm - - - - - SSW 32 39 17 21 - - -
21/12:30pm - - - - - W 20 28 11 15 - - -
21/12:00pm - - - - - WNW 20 26 11 14 - - -
21/11:30am - - - - - WNW 20 26 11 14 - - -
21/11:00am - - - - - WNW 17 26 9 14 - - -
21/10:30am - - - - - WNW 17 26 9 14 - - -
21/10:00am - - - - - WNW 17 22 9 12 - - -
21/09:30am - - - - - WNW 20 26 11 14 - - -
21/09:00am - - - - - W 17 22 9 12 - - -
21/08:30am - - - - - WSW 15 19 8 10 - - -
21/08:00am - - - - - WSW 19 26 10 14 - - -
21/07:30am - - - - - SW 20 30 11 16 - - -
21/07:00am - - - - - WSW 19 26 10 14 - - -
21/06:30am - - - - - NW 13 17 7 9 - - -
21/06:00am - - - - - NW 13 17 7 9 - - -
21/05:30am - - - - - NNW 19 24 10 13 - - -
21/05:00am - - - - - NNW 20 26 11 14 - - -
21/04:30am - - - - - NNW 20 24 11 13 - - -
21/04:00am - - - - - NNW 19 22 10 12 - - -
21/03:30am - - - - - NNW 20 24 11 13 - - -
21/03:00am - - - - - NW 17 20 9 11 - - -
21/02:30am - - - - - NNW 17 19 9 10 - - -
21/02:00am - - - - - NW 13 15 7 8 - - -
21/01:30am - - - - - NW 11 13 6 7 - - -
21/01:00am - - - - - NNW 9 11 5 6 - - -
21/12:30am - - - - - WNW 13 15 7 8 - - -
21/12:00am - - - - - WNW 13 15 7 8 - - -
 
Date/Time
WST
Temp
°C
App
Temp
°C
Dew
Point
°C
Rel
Hum
%
Delta-T
°C
Wind Press
QNH
hPa
Press
MSL
hPa
Rain since
9am
mm
Dir  Spd
km/h
Gust
km/h
Spd
kts
Gust
kts
20/11:30pm - - - - - WNW 15 17 8 9 - - -
20/11:00pm - - - - - WNW 13 15 7 8 - - -
20/10:30pm - - - - - W 13 15 7 8 - - -
20/10:00pm - - - - - W 13 15 7 8 - - -
20/09:30pm - - - - - WSW 11 11 6 6 - - -
20/09:00pm - - - - - WSW 9 11 5 6 - - -
20/08:30pm - - - - - SW 9 13 5 7 - - -
20/08:00pm - - - - - SSW 7 9 4 5 - - -
20/07:30pm - - - - - CALM 0 0 0 0 - - -
20/07:00pm - - - - - SSW 7 9 4 5 - - -
20/06:30pm - - - - - SSW 11 15 6 8 - - -
20/06:00pm - - - - - SSW 13 15 7 8 - - -
20/05:30pm - - - - - SSW 11 15 6 8 - - -
20/05:00pm - - - - - SSW 9 15 5 8 - - -
20/04:30pm - - - - - SSE 7 11 4 6 - - -
20/04:00pm - - - - - S 9 15 5 8 - - -
20/03:30pm - - - - - SSW 13 20 7 11 - - -
20/03:00pm - - - - - S 11 15 6 8 - - -
20/02:30pm - - - - - N 9 11 5 6 - - -
20/02:00pm - - - - - N 9 13 5 7 - - -
20/01:30pm - - - - - N 9 13 5 7 - - -
20/01:00pm - - - - - NNW 13 17 7 9 - - -
20/12:30pm - - - - - NNW 17 20 9 11 - - -
20/12:00pm - - - - - N 20 24 11 13 - - -
20/11:30am - - - - - NNW 20 24 11 13 - - -
20/11:00am - - - - - NNW 24 28 13 15 - - -
20/10:30am - - - - - NNW 26 28 14 15 - - -
20/10:00am - - - - - NNW 22 26 12 14 - - -
20/09:30am - - - - - N 22 26 12 14 - - -
20/09:00am - - - - - N 20 24 11 13 - - -
20/08:30am - - - - - N 20 24 11 13 - - -
20/08:00am - - - - - N 17 19 9 10 - - -
20/07:30am - - - - - N 17 19 9 10 - - -
20/07:00am - - - - - NNW 17 19 9 10 - - -
20/06:30am - - - - - N 15 17 8 9 - - -
20/06:00am - - - - - N 17 19 9 10 - - -
20/05:30am - - - - - N 9 11 5 6 - - -
20/05:00am - - - - - N 6 9 3 5 - - -
20/04:30am - - - - - NNW 6 7 3 4 - - -

Other formats

Comma delimited format used in spreadsheet applications
http://www.bom.gov.au/fwo/IDW60801/IDW60801.99254.axf

JavaScript Object Notation format (JSON) in row-major order
http://www.bom.gov.au/fwo/IDW60801/IDW60801.99254.json

Data quality

Most of these data are generated automatically and are frequently updated. Quality checks on data are not normally performed. It is possible for incorrect values to appear. Refer to information at About Latest Weather Observations and please check the disclaimer before using these data.